Latest Weather Observations for Kowen Forest

IDN60901

Issued at 12:41 pm EST Tuesday 7 July 2020 (issued every 10 minutes, with the page automatically refreshed every 10 minutes)

About weather observations | Map of Canberra area stations | Latest observations for Canberra area | Other Formats
Station Details ID: 250071 Name: KOWEN FOREST (PCS) Lat: -35.31 Lon: 149.32 Height: 720.0 m

Portable automatic weather stations (PAWS) are operated by other organisations, such as Fire and Emergency Services, and are included here by agreement. Portable stations may be deployed to a location for a short period and their location may be subject to change without notice. Wind observations from these stations are provided from heights of either three (3) or ten (10) metres above ground level (AGL).

Data from the previous 72 hours. | See also: Recent months for locations in Aust Capital Territory
Date/Time
EST
Temp
°C
App
Temp
°C
Dew
Point
°C
Rel
Hum
%
Delta-T
°C
Wind Press
QNH
hPa
Press
MSL
hPa
Rain since
9am
mm
Dir  Spd
km/h
Gust
km/h
Spd
kts
Gust
kts
07/12:30pm 12.2 9.7 4.8 60 3.5 SSW 7 15 4 8 - - 0.0
07/12:20pm 11.7 8.7 4.2 60 3.5 S 9 15 5 8 - - 0.0
07/12:10pm 11.5 8.2 4.5 62 3.3 SSW 11 13 6 7 - - 0.0
07/12:00pm 11.1 7.8 4.5 64 3.1 S 11 13 6 7 - - 0.0
07/11:50am 11.1 7.8 4.4 63 3.1 S 11 13 6 7 - - 0.0
07/11:40am 11.2 8.2 4.1 61 3.3 S 9 13 5 7 - - 0.0
07/11:30am 11.0 8.4 4.0 62 3.3 SSE 7 11 4 6 - - 0.0
07/11:20am 10.9 8.4 4.5 64 3.0 S 7 9 4 5 - - 0.0
07/11:10am 10.4 7.5 4.4 66 2.8 SSW 9 15 5 8 - - 0.0
07/11:00am 10.4 7.8 4.4 66 2.8 SSE 7 9 4 5 - - 0.0
07/10:50am 10.3 7.9 4.4 67 2.7 SSE 6 9 3 5 - - 0.0
07/10:40am 9.7 7.1 4.4 69 2.5 S 7 9 4 5 - - 0.0
07/10:30am 9.4 6.8 4.4 71 2.3 S 7 11 4 6 - - 0.0
07/10:20am 9.1 6.7 4.4 72 2.2 SSE 6 7 3 4 - - 0.0
07/10:10am 8.8 6.4 4.1 72 2.1 SSE 6 7 3 4 - - 0.0
07/10:00am 8.4 6.0 4.5 76 1.8 S 6 7 3 4 - - 0.0
07/09:50am 7.8 5.2 4.3 78 1.6 S 7 9 4 5 - - 0.0
07/09:40am 7.1 4.8 4.7 85 1.1 S 6 7 3 4 - - 0.0
07/09:30am 6.0 4.5 5.0 93 0.5 S 2 4 1 2 - - 0.0
07/09:20am 5.0 3.3 4.2 95 0.4 SSW 2 2 1 1 - - 0.0
07/09:10am 4.1 2.3 3.3 94 0.3 N 2 2 1 1 - - 0.0
07/09:00am 3.4 1.5 2.6 94 0.3 NE 2 4 1 2 - - 0.0
07/08:50am 2.6 0.5 2.0 96 0.2 NNE 2 4 1 2 - - 0.0
07/08:40am 1.9 -0.3 1.3 96 0.2 N 2 2 1 1 - - 0.0
07/08:30am 1.1 -1.2 0.7 97 0.2 NNE 2 2 1 1 - - 0.0
07/08:20am 0.2 -2.2 -0.3 96 0.2 WSW 2 6 1 3 - - 0.0
07/08:10am -0.3 -2.8 -0.8 96 0.2 WNW 2 6 1 3 - - 0.0
07/08:00am -0.3 -2.7 -0.6 98 0.1 ENE 2 6 1 3 - - 0.0
07/07:50am -0.6 -4.0 -0.9 98 0.1 ENE 7 7 4 4 - - 0.0
07/07:40am -1.8 -5.2 -2.1 98 0.0 NNE 6 7 3 4 - - 0.0
07/07:30am -1.9 -4.6 -2.1 99 0.0 SE 2 4 1 2 - - 0.0
07/07:20am -1.6 -4.6 -1.8 99 0.0 E 4 6 2 3 - - 0.0
07/07:10am -2.0 -4.7 -2.2 99 0.0 ENE 2 4 1 2 - - 0.0
07/07:00am -2.0 -5.0 -2.2 99 0.0 SE 4 4 2 2 - - 0.0
07/06:50am -2.2 -4.9 -2.5 98 0.0 SE 2 6 1 3 - - 0.0
07/06:40am -2.3 -5.8 -2.6 98 0.0 E 6 6 3 3 - - 0.0
07/06:30am -2.0 -5.4 -2.2 99 0.0 E 6 6 3 3 - - 0.0
07/06:20am -1.5 -4.1 -1.7 99 0.0 ESE 2 4 1 2 - - 0.0
07/06:10am -1.3 -3.9 -1.5 99 0.0 SW 2 4 1 2 - - 0.0
07/06:00am -1.5 -4.5 -1.7 99 0.0 SSW 4 6 2 3 - - 0.0
07/05:50am -0.2 -3.6 -0.4 99 0.1 E 7 9 4 5 - - 0.0
07/05:40am -0.2 -4.0 -0.4 99 0.1 ENE 9 9 5 5 - - 0.0
07/05:30am -1.7 -5.3 -2.0 98 0.0 ENE 7 9 4 5 - - 0.0
07/05:20am -2.7 -5.8 -3.0 98 0.0 ENE 4 6 2 3 - - 0.0
07/05:10am -2.4 -5.5 -2.7 98 0.0 - 4 7 2 4 - - 0.0
07/05:00am -3.1 -6.9 -3.4 98 0.0 NE 7 9 4 5 - - 0.0
07/04:50am -3.0 -6.6 -3.3 98 0.0 NE 6 7 3 4 - - 0.0
07/04:40am -2.5 -6.0 -2.7 99 0.0 NE 6 7 3 4 - - 0.0
07/04:30am -2.5 -5.2 -2.7 99 0.0 ENE 2 4 1 2 - - 0.0
07/04:20am -2.5 -5.6 -2.7 99 0.0 NNE 4 4 2 2 - - 0.0
07/04:10am -2.5 -5.2 -2.7 99 0.0 NE 2 2 1 1 - - 0.0
07/04:00am -2.6 -5.3 -2.8 99 0.0 N 2 2 1 1 - - 0.0
07/03:50am -2.4 -5.1 -2.6 99 0.0 SE 2 4 1 2 - - 0.0
07/03:40am -2.4 -5.5 -2.5 99 -0.1 NE 4 6 2 3 - - 0.0
07/03:30am -2.5 -5.6 -2.6 99 -0.1 NE 4 6 2 3 - - 0.0
07/03:20am -2.3 -5.0 -2.4 99 -0.1 ENE 2 2 1 1 - - 0.0
07/03:10am -2.1 -4.8 -2.2 99 -0.1 SSW 2 4 1 2 - - 0.0
07/03:00am -2.1 -4.8 -2.2 99 -0.1 SW 2 4 1 2 - - 0.0
07/02:50am -1.9 -4.5 -2.0 99 -0.1 NNE 2 4 1 2 - - 0.0
07/02:40am -1.8 -4.4 -1.9 99 0.0 NE 2 4 1 2 - - 0.0
07/02:30am -1.9 -4.9 -2.0 99 -0.1 NNE 4 4 2 2 - - 0.0
07/02:20am -1.9 -4.6 -2.1 99 0.0 NNE 2 4 1 2 - - 0.0
07/02:10am -1.8 -4.4 -1.9 99 0.0 N 2 4 1 2 - - 0.0
07/02:00am -1.4 -4.0 -1.5 99 0.0 SE 2 2 1 1 - - 0.0
07/01:50am -1.2 -3.7 -1.3 99 0.0 NNE 2 4 1 2 - - 0.0
07/01:40am -0.9 -3.4 -1.0 99 0.0 NNE 2 4 1 2 - - 0.0
07/01:30am -1.0 -3.9 -1.1 99 0.0 E 4 6 2 3 - - 0.0
07/01:20am -0.9 -4.2 -1.0 99 0.0 NE 6 7 3 4 - - 0.0
07/01:10am -0.5 -3.3 -0.7 99 0.0 ENE 4 6 2 3 - - 0.0
07/01:00am -0.3 -2.7 -0.4 99 0.0 ENE 2 4 1 2 - - 0.0
07/12:50am 0.0 -2.8 -0.1 99 0.0 ENE 4 4 2 2 - - 0.0
07/12:40am 0.3 -2.4 0.2 99 0.0 NE 4 6 2 3 - - 0.0
07/12:30am 0.7 -2.0 0.6 99 0.0 ENE 4 4 2 2 - - 0.0
07/12:20am 1.1 -1.1 1.0 99 0.0 E 2 4 1 2 - - 0.0
07/12:10am 1.1 -1.1 1.0 99 0.0 NE 2 4 1 2 - - 0.0
07/12:00am 1.3 -0.9 1.2 99 0.0 SE 2 4 1 2 - - 0.0
 
Date/Time
EST
Temp
°C
App
Temp
°C
Dew
Point
°C
Rel
Hum
%
Delta-T
°C
Wind Press
QNH
hPa
Press
MSL
hPa
Rain since
9am
mm
Dir  Spd
km/h
Gust
km/h
Spd
kts
Gust
kts
06/11:50pm 1.4 -0.8 1.3 99 0.0 S 2 4 1 2 - - 0.0
06/11:40pm 1.5 -0.6 1.4 99 0.0 SSE 2 4 1 2 - - 0.0
06/11:30pm 1.8 -0.7 1.7 99 0.0 SSE 4 4 2 2 - - 0.0
06/11:20pm 2.1 0.0 2.0 99 0.0 ESE 2 4 1 2 - - 0.0
06/11:10pm 2.4 0.0 2.3 99 0.0 ENE 4 4 2 2 - - 0.0
06/11:00pm 2.6 0.6 2.5 99 0.0 E 2 4 1 2 - - 0.0
06/10:50pm 2.6 0.6 2.5 99 0.0 ENE 2 4 1 2 - - 0.0
06/10:40pm 2.6 0.3 2.5 99 0.0 SE 4 4 2 2 - - 0.0
06/10:30pm 2.8 0.5 2.7 99 0.0 ESE 4 4 2 2 - - 0.0
06/10:20pm 2.8 0.5 2.7 99 0.0 SE 4 4 2 2 - - 0.0
06/10:10pm 3.0 0.7 2.9 99 0.0 SSE 4 6 2 3 - - 0.0
06/10:00pm 3.1 0.8 3.0 99 0.0 SSE 4 6 2 3 - - 0.0
06/09:50pm 3.4 1.2 3.3 99 0.0 SSE 4 6 2 3 - - 0.0
06/09:40pm 3.4 1.6 3.3 99 0.0 E 2 4 1 2 - - 0.0
06/09:30pm 3.4 1.6 3.2 99 0.1 ESE 2 4 1 2 - - 0.0
06/09:20pm 3.4 0.8 3.2 99 0.1 S 6 7 3 4 - - 0.0
06/09:10pm 3.6 1.0 3.4 99 0.1 SW 6 6 3 3 - - 0.0
06/09:00pm 3.7 1.0 3.5 99 0.1 SSW 7 7 4 4 - - 0.0
06/08:50pm 3.8 1.6 3.6 99 0.1 SW 4 6 2 3 - - 0.0
06/08:40pm 3.8 1.6 3.5 98 0.1 SW 4 6 2 3 - - 0.0
06/08:30pm 3.9 1.7 3.6 98 0.1 S 4 6 2 3 - - 0.0
06/08:20pm 4.0 1.9 3.7 98 0.1 S 4 6 2 3 - - 0.0
06/08:10pm 4.0 1.5 3.7 98 0.1 SW 6 7 3 4 - - 0.0
06/08:00pm 4.1 2.0 3.7 97 0.2 SSW 4 6 2 3 - - 0.0
06/07:50pm 4.2 1.7 3.8 97 0.2 SW 6 6 3 3 - - 0.0
06/07:40pm 4.3 2.2 3.9 97 0.2 S 4 6 2 3 - - 0.0
06/07:30pm 4.3 2.6 3.9 97 0.2 S 2 4 1 2 - - 0.0
06/07:20pm 4.4 2.3 3.9 97 0.2 SW 4 6 2 3 - - 0.0
06/07:10pm 4.5 2.0 4.0 97 0.2 SSW 6 7 3 4 - - 0.0
06/07:00pm 4.6 2.1 4.0 96 0.3 SSW 6 6 3 3 - - 0.0
06/06:50pm 4.6 2.2 4.1 97 0.2 SW 6 7 3 4 - - 0.0
06/06:40pm 4.7 2.3 4.1 96 0.3 SW 6 7 3 4 - - 0.0
06/06:30pm 4.7 2.3 4.1 96 0.3 WSW 6 7 3 4 - - 0.0
06/06:20pm 4.8 2.4 4.2 96 0.3 WSW 6 7 3 4 - - 0.0
06/06:10pm 4.9 2.5 4.2 95 0.3 WSW 6 9 3 5 - - 0.0
06/06:00pm 5.0 2.6 4.3 95 0.3 SW 6 6 3 3 - - 0.0
06/05:50pm 4.9 2.5 4.2 95 0.3 WSW 6 6 3 3 - - 0.0
06/05:40pm 5.0 2.4 4.2 95 0.4 SW 7 9 4 5 - - 0.0
06/05:30pm 5.1 2.5 4.3 95 0.4 WSW 7 9 4 5 - - 0.0
06/05:20pm 5.2 2.6 4.2 93 0.4 SW 7 9 4 5 - - 0.0
06/05:10pm 5.2 2.6 4.2 93 0.4 SW 7 9 4 5 - - 0.0
06/05:00pm 5.4 2.8 4.3 93 0.5 SW 7 7 4 4 - - 0.0
06/04:50pm 6.2 3.9 4.6 89 0.7 WSW 6 7 3 4 - - 0.0
06/04:40pm 7.3 4.8 4.9 85 1.1 W 7 9 4 5 - - 0.0
06/04:30pm 7.9 5.5 5.1 82 1.3 W 7 9 4 5 - - 0.0
06/04:20pm 8.1 5.3 5.1 81 1.4 WSW 9 11 5 6 - - 0.0
06/04:10pm 8.4 5.2 5.0 79 1.6 WSW 11 13 6 7 - - 0.0
06/04:00pm 8.8 5.6 5.0 77 1.8 WSW 11 13 6 7 - - 0.0
06/03:50pm 9.1 5.9 5.1 76 1.9 W 11 13 6 7 - - 0.0
06/03:40pm 9.3 6.1 5.1 75 2.0 W 11 13 6 7 - - 0.0
06/03:30pm 9.3 5.7 4.9 74 2.1 W 13 13 7 7 - - 0.0
06/03:20pm 9.5 5.9 5.2 74 2.0 W 13 15 7 8 - - 0.0
06/03:10pm 9.6 6.0 4.8 72 2.2 W 13 15 7 8 - - 0.0
06/03:00pm 9.7 6.1 5.0 72 2.2 W 13 13 7 7 - - 0.0
06/02:50pm 9.8 6.2 4.9 71 2.3 W 13 13 7 7 - - 0.0
06/02:40pm 10.0 6.9 5.4 73 2.2 W 11 13 6 7 - - 0.0
06/02:30pm 10.0 7.2 5.1 71 2.3 W 9 13 5 7 - - 0.0
06/02:20pm 9.9 7.0 4.9 71 2.3 WNW 9 13 5 7 - - 0.0
06/02:10pm 10.1 7.6 5.0 70 2.4 W 7 9 4 5 - - 0.0
06/02:00pm 9.8 7.3 5.0 72 2.3 WSW 7 11 4 6 - - 0.0
06/01:50pm 9.3 6.6 5.7 78 1.7 SW 9 11 5 6 - - 0.0
06/01:40pm 9.0 6.3 5.6 79 1.6 SW 9 11 5 6 - - 0.0
06/01:30pm 8.6 5.8 5.2 79 1.6 SW 9 9 5 5 - - 0.0
06/01:20pm 8.2 5.4 5.2 81 1.4 SW 9 11 5 6 - - 0.0
06/01:10pm 7.9 4.3 5.1 82 1.3 SSW 13 13 7 7 - - 0.0
06/01:00pm 7.9 4.7 5.2 83 1.3 SSW 11 13 6 7 - - 0.0
06/12:50pm 8.0 4.9 5.4 84 1.2 SSW 11 15 6 8 - - 0.0
06/12:40pm 8.2 5.9 5.6 84 1.2 WSW 7 9 4 5 - - 0.0
06/12:30pm 7.9 5.6 5.7 86 1.0 WSW 7 9 4 5 - - 0.0
06/12:20pm 7.7 5.5 6.3 91 0.7 SW 7 9 4 5 - - 0.0
06/12:10pm 7.3 5.1 6.2 93 0.5 SW 7 9 4 5 - - 0.0
06/12:00pm 6.7 4.5 6.1 96 0.3 SSW 7 11 4 6 - - 0.0
06/11:50am 6.6 4.4 6.3 98 0.1 SSW 7 9 4 5 - - 0.0
06/11:40am 6.2 4.5 5.9 98 0.1 SW 4 6 2 3 - - 0.0
06/11:30am 5.4 3.2 5.3 99 0.0 SSW 6 6 3 3 - - 0.0
06/11:20am 5.3 3.4 5.1 99 0.1 SW 4 7 2 4 - - 0.0
06/11:10am 4.9 3.0 4.7 99 0.1 SSW 4 4 2 2 - - 0.0
06/11:00am 4.6 3.0 4.5 99 0.0 SSW 2 4 1 2 - - 0.0
06/10:50am 4.2 2.1 4.1 99 0.0 SSW 4 6 2 3 - - 0.0
06/10:40am 4.1 1.6 4.0 99 0.0 SW 6 7 3 4 - - 0.0
06/10:30am 4.2 1.8 4.2 100 0.0 SSW 6 7 3 4 - - 0.0
06/10:20am 4.1 2.0 4.0 99 0.0 SSW 4 6 2 3 - - 0.0
06/10:10am 3.9 2.2 3.8 99 0.0 SSW 2 4 1 2 - - 0.0
06/10:00am 3.7 1.5 3.6 99 0.0 SW 4 6 2 3 - - 0.0
06/09:50am 3.7 1.9 3.6 99 0.0 SW 2 4 1 2 - - 0.0
06/09:40am 3.4 1.6 3.3 99 0.0 SSW 2 4 1 2 - - 0.0
06/09:30am 3.0 1.1 2.9 99 0.0 SW 2 4 1 2 - - 0.0
06/09:20am 2.5 0.2 2.5 100 0.0 W 4 6 2 3 - - 0.0
06/09:10am 2.3 0.3 2.3 100 0.0 WNW 2 4 1 2 - - 0.0
06/09:00am 2.3 -0.1 2.2 99 0.0 WSW 4 6 2 3 - - 0.2
06/08:50am 2.2 -0.2 2.2 100 0.0 SSW 4 6 2 3 - - 0.2
06/08:40am 2.1 -0.3 2.0 99 0.0 SSW 4 6 2 3 - - 0.2
06/08:30am 1.9 -0.2 1.8 99 0.0 NNE 2 4 1 2 - - 0.2
06/08:20am 1.6 -0.5 1.6 100 0.0 ENE 2 4 1 2 - - 0.2
06/08:10am 1.5 -0.6 1.5 100 0.0 ENE 2 4 1 2 - - 0.2
06/08:00am 1.1 -1.5 1.1 100 0.0 E 4 4 2 2 - - 0.2
06/07:50am 1.0 -1.2 0.9 99 0.0 ENE 2 4 1 2 - - 0.0
06/07:40am 0.8 -1.4 0.8 100 0.0 ENE 2 2 1 1 - - 0.0
06/07:30am 0.7 -2.0 0.6 99 0.0 ENE 4 4 2 2 - - 0.0
06/07:20am 0.5 -2.2 0.5 100 0.0 ENE 4 6 2 3 - - 0.0
06/07:10am 0.5 -2.2 0.4 99 0.0 ENE 4 4 2 2 - - 0.0
06/07:00am 0.3 -2.4 0.2 99 0.0 ENE 4 6 2 3 - - 0.0
06/06:50am 0.3 -2.8 0.2 99 0.0 ENE 6 6 3 3 - - 0.0
06/06:40am 0.0 -3.1 -0.1 99 0.0 ENE 6 7 3 4 - - 0.0
06/06:30am -0.3 -3.5 -0.4 99 0.0 ENE 6 6 3 3 - - 0.0
06/06:20am -0.3 -3.5 -0.4 99 0.0 ENE 6 6 3 3 - - 0.0
06/06:10am -0.5 -3.7 -0.6 99 0.0 ENE 6 6 3 3 - - 0.0
06/06:00am -0.4 -3.2 -0.5 99 0.0 NE 4 6 2 3 - - 0.0
06/05:50am -0.3 -3.1 -0.5 99 0.1 ENE 4 6 2 3 - - 0.0
06/05:40am -0.6 -3.4 -0.7 99 0.0 ENE 4 6 2 3 - - 0.0
06/05:30am -0.9 -4.2 -1.1 99 0.0 ENE 6 7 3 4 - - 0.0
06/05:20am -1.3 -4.6 -1.4 99 0.0 NE 6 7 3 4 - - 0.0
06/05:10am -1.5 -4.5 -1.7 99 0.0 ENE 4 6 2 3 - - 0.0
06/05:00am -1.7 -4.7 -1.9 99 0.0 NE 4 4 2 2 - - 0.0
06/04:50am -1.9 -4.6 -2.1 99 0.0 NE 2 4 1 2 - - 0.0
06/04:40am -1.8 -4.4 -2.0 99 0.0 E 2 4 1 2 - - 0.0
06/04:30am -1.6 -4.6 -1.8 99 0.0 E 4 4 2 2 - - 0.0
06/04:20am -1.8 -5.2 -1.9 99 0.0 ENE 6 6 3 3 - - 0.0
06/04:10am -1.9 -4.9 -2.1 99 0.0 NE 4 6 2 3 - - 0.0
06/04:00am -2.0 -5.0 -2.2 99 0.0 NNE 4 6 2 3 - - 0.0
06/03:50am -1.8 -4.4 -2.0 99 0.0 E 2 4 1 2 - - 0.0
06/03:40am -1.6 -4.6 -1.8 99 0.0 SW 4 6 2 3 - - 0.0
06/03:30am -1.6 -4.2 -1.7 99 0.0 SSE 2 4 1 2 - - 0.0
06/03:20am -1.8 -4.8 -2.0 99 0.0 NE 4 4 2 2 - - 0.0
06/03:10am -1.5 -4.5 -1.7 99 0.0 NE 4 4 2 2 - - 0.0
06/03:00am -1.7 -4.7 -1.9 99 0.0 NE 4 4 2 2 - - 0.0
06/02:50am -1.6 -4.2 -1.8 99 0.0 NNE 2 4 1 2 - - 0.0
06/02:40am -1.4 -4.0 -1.5 99 0.0 SE 2 2 1 1 - - 0.0
06/02:30am -1.6 -4.6 -1.8 99 0.0 NE 4 4 2 2 - - 0.0
06/02:20am -1.9 -4.9 -2.1 99 0.0 N 4 6 2 3 - - 0.0
06/02:10am -1.3 -3.9 -1.5 99 0.0 E 2 4 1 2 - - 0.0
06/02:00am -1.4 -4.0 -1.6 99 0.0 ENE 2 4 1 2 - - 0.0
06/01:50am -1.6 -4.6 -1.8 99 0.0 NNE 4 6 2 3 - - 0.0
06/01:40am -1.6 -4.2 -1.8 99 0.0 ENE 2 6 1 3 - - 0.0
06/01:30am -1.1 -3.6 -1.3 99 0.0 S 2 4 1 2 - - 0.0
06/01:20am -1.3 -3.9 -1.5 99 0.0 ESE 2 4 1 2 - - 0.0
06/01:10am -1.3 -3.9 -1.6 98 0.0 S 2 4 1 2 - - 0.0
06/01:00am -1.3 -3.9 -1.5 99 0.0 SSE 2 4 1 2 - - 0.0
06/12:50am -1.2 -3.8 -1.4 99 0.0 S 2 2 1 1 - - 0.0
06/12:40am -1.3 -4.3 -1.5 99 0.0 NE 4 4 2 2 - - 0.0
06/12:30am -0.4 -3.2 -0.6 99 0.1 ENE 4 6 2 3 - - 0.0
06/12:20am -0.6 -3.1 -0.9 98 0.1 NE 2 4 1 2 - - 0.0
06/12:10am -0.5 -3.3 -0.7 99 0.0 NNE 4 6 2 3 - - 0.0
06/12:00am -0.6 -3.5 -0.8 99 0.0 NNE 4 4 2 2 - - 0.0
 
Date/Time
EST
Temp
°C
App
Temp
°C
Dew
Point
°C
Rel
Hum
%
Delta-T
°C
Wind Press
QNH
hPa
Press
MSL
hPa
Rain since
9am
mm
Dir  Spd
km/h
Gust
km/h
Spd
kts
Gust
kts
05/11:50pm -0.7 -3.2 -0.9 99 0.0 SSE 2 4 1 2 - - 0.0
05/11:40pm -0.6 -3.1 -0.8 99 0.0 S 2 4 1 2 - - 0.0
05/11:30pm -0.6 -3.1 -0.9 98 0.1 NE 2 4 1 2 - - 0.0
05/11:20pm -0.8 -3.7 -1.0 99 0.0 NE 4 6 2 3 - - 0.0
05/11:10pm -0.8 -3.7 -1.1 98 0.1 NE 4 6 2 3 - - 0.0
05/11:00pm -0.7 -3.6 -1.0 98 0.1 NNE 4 6 2 3 - - 0.0
05/10:50pm 0.0 -2.8 -0.3 98 0.1 NE 4 4 2 2 - - 0.0
05/10:40pm 0.2 -2.9 0.0 99 0.1 NE 6 6 3 3 - - 0.0
05/10:30pm -0.1 -3.3 -0.3 99 0.1 NE 6 6 3 3 - - 0.0
05/10:20pm 0.1 -3.1 -0.2 98 0.1 NE 6 6 3 3 - - 0.0
05/10:10pm -0.2 -3.0 -0.6 97 0.1 NE 4 6 2 3 - - 0.0
05/10:00pm 0.8 -1.9 0.5 98 0.1 NNE 4 4 2 2 - - 0.0
05/09:50pm 0.5 -2.2 0.2 98 0.1 NNE 4 4 2 2 - - 0.0
05/09:40pm 0.4 -2.3 0.0 97 0.2 NNE 4 6 2 3 - - 0.0
05/09:30pm 1.4 -0.8 1.2 99 0.1 ESE 2 4 1 2 - - 0.0
05/09:20pm 1.5 -0.7 1.3 99 0.1 NE 2 4 1 2 - - 0.0
05/09:10pm 1.1 -1.5 0.8 98 0.1 NNE 4 6 2 3 - - 0.0
05/09:00pm 1.7 -0.5 1.3 97 0.2 ESE 2 4 1 2 - - 0.0
05/08:50pm 2.2 -0.2 1.9 98 0.1 ENE 4 6 2 3 - - 0.0
05/08:40pm 1.8 -0.3 1.4 97 0.2 E 2 4 1 2 - - 0.0
05/08:30pm 2.1 0.0 1.7 97 0.2 WSW 2 4 1 2 - - 0.0
05/08:20pm 2.4 0.3 1.9 96 0.2 ENE 2 4 1 2 - - 0.0
05/08:10pm 3.1 0.8 2.6 96 0.2 W 4 4 2 2 - - 0.0
05/08:00pm 3.3 1.0 2.8 97 0.2 NNE 4 4 2 2 - - 0.0
05/07:50pm 3.4 1.1 3.0 97 0.2 NE 4 4 2 2 - - 0.0
05/07:40pm 2.9 -0.1 2.3 96 0.2 ENE 7 9 4 5 - - 0.0
05/07:30pm 3.6 0.9 2.8 94 0.3 ENE 6 7 3 4 - - 0.0
05/07:20pm 3.9 1.6 3.0 94 0.4 ENE 4 4 2 2 - - 0.0
05/07:10pm 4.9 2.7 3.5 91 0.6 NNE 4 4 2 2 - - 0.0
05/07:00pm 5.9 3.5 4.2 89 0.8 N 6 9 3 5 - - 0.0
05/06:50pm 6.2 4.2 4.4 88 0.8 WSW 4 7 2 4 - - 0.0
05/06:40pm 6.1 4.1 4.4 89 0.8 WSW 4 6 2 3 - - 0.0
05/06:30pm 6.4 4.4 4.5 88 0.9 NW 4 7 2 4 - - 0.0
05/06:20pm 6.2 3.6 4.4 88 0.8 NNE 7 9 4 5 - - 0.0
05/06:10pm 6.2 3.8 4.4 88 0.8 N 6 6 3 3 - - 0.0
05/06:00pm 6.6 4.0 4.4 86 1.0 NNE 7 11 4 6 - - 0.0
05/05:50pm 6.5 4.1 4.3 86 1.0 NE 6 11 3 6 - - 0.0
05/05:40pm 6.9 4.5 4.4 84 1.1 NW 6 7 3 4 - - 0.0
05/05:30pm 7.4 4.9 4.6 82 1.3 WNW 7 9 4 5 - - 0.0
05/05:20pm 7.9 5.0 4.7 80 1.5 WNW 9 11 5 6 - - 0.0
05/05:10pm 8.3 5.0 4.7 78 1.7 WNW 11 13 6 7 - - 0.0
05/05:00pm 8.6 5.3 4.7 76 1.8 WNW 11 13 6 7 - - 0.0
05/04:50pm 9.1 5.8 4.8 74 2.0 WNW 11 13 6 7 - - 0.0
05/04:40pm 9.8 6.2 4.9 71 2.3 WNW 13 17 7 9 - - 0.0
05/04:30pm 10.3 7.0 4.8 69 2.6 WNW 11 11 6 6 - - 0.0
05/04:20pm 10.5 6.9 5.0 69 2.6 NW 13 17 7 9 - - 0.0
05/04:10pm 10.8 6.7 4.4 64 3.0 NW 15 19 8 10 - - 0.0
05/04:00pm 11.2 7.1 4.3 62 3.2 WNW 15 17 8 9 - - 0.0
05/03:50pm 11.3 7.2 4.3 62 3.3 WNW 15 19 8 10 - - 0.0
05/03:40pm 11.7 8.0 4.6 62 3.4 WNW 13 15 7 8 - - 0.0
05/03:30pm 11.7 7.9 3.8 58 3.7 WNW 13 15 7 8 - - 0.0
05/03:20pm 11.7 7.9 3.9 59 3.6 NW 13 17 7 9 - - 0.0
05/03:10pm 11.6 7.4 3.9 59 3.6 WNW 15 19 8 10 - - 0.0
05/03:00pm 11.8 7.6 3.7 57 3.8 WNW 15 19 8 10 - - 0.0
05/02:50pm 12.1 8.4 4.3 59 3.7 WNW 13 17 7 9 - - 0.0
05/02:40pm 12.0 7.8 4.0 58 3.7 WNW 15 19 8 10 - - 0.0
05/02:30pm 12.0 8.1 3.3 55 4.0 WNW 13 17 7 9 - - 0.0
05/02:20pm 12.2 8.2 2.9 53 4.3 W 13 15 7 8 - - 0.0
05/02:10pm 12.2 8.9 2.3 51 4.5 W 9 13 5 7 - - 0.0
05/02:00pm 12.0 7.3 1.2 47 4.8 WSW 15 19 8 10 - - 0.0
05/01:50pm 12.4 9.1 2.2 50 4.6 W 9 13 5 7 - - 0.0
05/01:40pm 12.1 8.3 1.6 48 4.7 W 11 17 6 9 - - 0.0
05/01:30pm 11.9 8.1 1.8 50 4.5 W 11 15 6 8 - - 0.0
05/01:20pm 11.7 7.9 1.6 50 4.5 W 11 15 6 8 - - 0.0
05/01:10pm 11.8 8.0 1.6 49 4.5 W 11 13 6 7 - - 0.0
05/01:00pm 11.7 8.3 1.8 50 4.4 WSW 9 15 5 8 - - 0.0
05/12:50pm 11.3 8.0 2.6 55 3.9 W 9 15 5 8 - - 0.0
05/12:40pm 10.9 6.7 1.6 52 4.1 W 13 19 7 10 - - 0.0
05/12:30pm 10.8 6.7 2.3 55 3.8 W 13 17 7 9 - - 0.0
05/12:20pm 10.7 6.5 1.9 54 3.9 W 13 17 7 9 - - 0.0
05/12:10pm 10.7 7.1 3.1 59 3.5 W 11 15 6 8 - - 0.0
05/12:00pm 10.3 6.2 2.4 58 3.5 NW 13 15 7 8 - - 0.0
05/11:50am 10.4 6.7 2.4 57 3.6 SW 11 13 6 7 - - 0.0
05/11:40am 10.1 6.2 1.0 53 3.9 W 11 15 6 8 - - 0.0
05/11:30am 10.0 5.7 1.2 54 3.8 WSW 13 17 7 9 - - 0.0
05/11:20am 9.9 5.3 1.7 56 3.6 W 15 17 8 9 - - 0.0
05/11:10am 9.7 5.1 1.7 57 3.5 W 15 20 8 11 - - 0.0
05/11:00am 9.5 5.3 1.9 59 3.3 W 13 17 7 9 - - 0.0
05/10:50am 9.5 5.4 2.0 59 3.3 W 13 15 7 8 - - 0.0
05/10:40am 9.3 5.3 2.7 63 2.9 W 13 17 7 9 - - 0.0
05/10:30am 8.9 4.6 3.2 67 2.6 WNW 15 17 8 9 - - 0.0
05/10:20am 8.6 4.3 3.3 69 2.4 NW 15 17 8 9 - - 0.0
05/10:10am 8.6 4.4 4.0 73 2.1 WNW 15 17 8 9 - - 0.0
05/10:00am 8.4 4.5 3.6 72 2.2 WNW 13 17 7 9 - - 0.0
05/09:50am 7.9 3.2 3.2 72 2.1 WNW 17 19 9 10 - - 0.0
05/09:40am 7.9 4.0 3.3 73 2.0 WNW 13 15 7 8 - - 0.0
05/09:30am 7.7 4.5 3.2 73 2.0 W 9 13 5 7 - - 0.0
05/09:20am 7.1 4.3 3.1 76 1.8 WSW 7 9 4 5 - - 0.0
05/09:10am 7.5 5.4 3.9 78 1.6 W 4 6 2 3 - - 0.0
05/09:00am 7.1 5.3 3.6 78 1.6 WSW 2 4 1 2 - - 0.0
05/08:50am 6.5 4.7 3.5 81 1.3 SE 2 4 1 2 - - 0.0
05/08:40am 5.1 3.3 3.4 89 0.7 N 2 4 1 2 - - 0.0
05/08:30am 4.0 2.1 3.1 94 0.4 SSW 2 2 1 1 - - 0.0
05/08:20am 3.1 0.7 2.4 95 0.3 S 4 6 2 3 - - 0.0
05/08:10am 2.7 0.7 2.1 96 0.2 SSE 2 2 1 1 - - 0.0
05/08:00am 2.1 0.0 1.7 97 0.2 NE 2 4 1 2 - - 0.0
05/07:50am 1.8 -0.7 1.4 97 0.2 NE 4 4 2 2 - - 0.0
05/07:40am 0.3 -2.4 0.0 98 0.1 ENE 4 4 2 2 - - 0.0
05/07:30am 0.0 -2.4 -0.3 98 0.1 ENE 2 4 1 2 - - 0.0
05/07:20am 0.1 -2.3 -0.3 97 0.2 WNW 2 2 1 1 - - 0.0
05/07:10am 0.7 -1.6 0.4 98 0.1 SE 2 4 1 2 - - 0.0
05/07:00am 0.6 -1.7 0.2 97 0.2 ENE 2 4 1 2 - - 0.0
05/06:50am 1.1 -1.2 0.7 97 0.2 N 2 2 1 1 - - 0.0
05/06:40am 0.6 -2.1 0.2 97 0.2 N 4 6 2 3 - - 0.0
05/06:30am 1.2 -1.8 0.8 97 0.2 N 6 6 3 3 - - 0.0
05/06:20am 1.4 -1.6 1.0 97 0.2 NE 6 7 3 4 - - 0.0
05/06:10am 2.1 -0.9 1.8 98 0.1 NE 7 9 4 5 - - 0.0
05/06:00am 2.5 -0.3 2.2 98 0.1 ENE 6 7 3 4 - - 0.0
05/05:50am 2.1 -0.7 1.8 98 0.1 ENE 6 7 3 4 - - 0.0
05/05:40am 1.0 -1.7 0.5 96 0.2 NE 4 7 2 4 - - 0.0
05/05:30am 1.3 -1.4 0.6 95 0.3 ESE 4 4 2 2 - - 0.0
05/05:20am 1.9 -0.7 1.1 94 0.3 SE 4 6 2 3 - - 0.0
05/05:10am 2.7 -0.1 2.0 95 0.3 S 6 7 3 4 - - 0.0
05/05:00am 3.3 0.9 2.4 94 0.4 S 4 6 2 3 - - 0.0
05/04:50am 4.1 0.9 3.0 92 0.5 WSW 9 13 5 7 - - 0.0
05/04:40am 4.5 0.2 3.2 91 0.6 W 15 19 8 10 - - 0.0
05/04:30am 4.5 -0.2 3.2 91 0.6 W 17 20 9 11 - - 0.0
05/04:20am 4.7 -0.4 3.2 90 0.6 W 19 19 10 10 - - 0.0
05/04:10am 4.8 -0.3 3.2 89 0.7 WNW 19 20 10 11 - - 0.0
05/04:00am 4.9 -0.2 3.1 88 0.8 WNW 19 20 10 11 - - 0.0
05/03:50am 5.0 -0.3 3.2 88 0.8 WNW 20 22 11 12 - - 0.0
05/03:40am 4.9 -0.4 3.2 89 0.7 WNW 20 22 11 12 - - 0.0
05/03:30am 4.9 -0.3 3.3 89 0.7 WNW 20 24 11 13 - - 0.0
05/03:20am 4.8 -0.4 3.3 90 0.6 WNW 20 24 11 13 - - 0.0
05/03:10am 4.7 -0.5 3.3 91 0.6 NW 20 22 11 12 - - 0.0
05/03:00am 4.7 -0.4 3.2 90 0.6 WNW 19 24 10 13 - - 0.0
05/02:50am 4.5 -0.6 3.1 91 0.6 NW 19 20 10 11 - - 0.0
05/02:40am 4.4 0.1 3.0 91 0.6 NW 15 17 8 9 - - 0.0
05/02:30am 4.4 0.1 3.0 91 0.6 NW 15 17 8 9 - - 0.0
05/02:20am 4.6 0.3 3.0 89 0.7 NW 15 19 8 10 - - 0.0
05/02:10am 4.6 -0.5 2.9 89 0.7 NW 19 22 10 12 - - 0.0
05/02:00am 4.5 -0.2 2.9 89 0.7 NW 17 17 9 9 - - 0.0
05/01:50am 4.4 -0.4 2.7 89 0.7 NW 17 20 9 11 - - 0.0
05/01:40am 4.3 -0.5 2.8 90 0.6 NW 17 20 9 11 - - 0.0
05/01:30am 4.6 -0.2 2.6 87 0.8 NW 17 20 9 11 - - 0.0
05/01:20am 4.6 -0.6 2.6 87 0.8 NW 19 20 10 11 - - 0.0
05/01:10am 4.4 -0.8 2.6 88 0.8 NW 19 22 10 12 - - 0.0
05/01:00am 4.5 -0.3 2.7 88 0.8 NW 17 19 9 10 - - 0.0
05/12:50am 4.5 -0.7 2.6 87 0.8 WNW 19 22 10 12 - - 0.0
05/12:40am 4.3 -0.9 2.7 89 0.7 NW 19 20 10 11 - - 0.0
05/12:30am 4.4 -0.4 2.6 88 0.8 NW 17 20 9 11 - - 0.0
05/12:20am 4.6 -0.8 2.5 86 0.9 WNW 20 22 11 12 - - 0.0
05/12:10am 4.6 -0.6 2.4 86 0.9 WNW 19 22 10 12 - - 0.0
05/12:00am 4.6 -0.6 2.2 84 1.0 WNW 19 24 10 13 - - 0.0
 
Date/Time
EST
Temp
°C
App
Temp
°C
Dew
Point
°C
Rel
Hum
%
Delta-T
°C
Wind Press
QNH
hPa
Press
MSL
hPa
Rain since
9am
mm
Dir  Spd
km/h
Gust
km/h
Spd
kts
Gust
kts
04/11:50pm 4.7 -0.7 2.2 84 1.1 WNW 20 24 11 13 - - 0.0
04/11:40pm 4.7 -0.5 2.2 84 1.1 WNW 19 20 10 11 - - 0.0
04/11:30pm 4.7 -0.6 2.1 83 1.1 WNW 19 24 10 13 - - 0.0
04/11:20pm 4.7 -0.6 2.1 83 1.1 WNW 19 24 10 13 - - 0.0
04/11:10pm 4.7 -0.8 2.1 83 1.1 WNW 20 22 11 12 - - 0.0
04/11:00pm 4.8 -1.1 2.0 82 1.2 WNW 22 24 12 13 - - 0.0
04/10:50pm 4.8 -1.1 1.9 81 1.2 WNW 22 26 12 14 - - 0.0
04/10:40pm 4.9 -1.4 1.8 80 1.3 WNW 24 28 13 15 - - 0.0
04/10:30pm 4.9 -1.4 1.7 80 1.3 WNW 24 28 13 15 - - 0.0
04/10:20pm 5.0 -1.3 1.7 79 1.4 WNW 24 28 13 15 - - 0.0
04/10:10pm 5.0 -1.3 1.6 79 1.4 WNW 24 26 13 14 - - 0.0
04/10:00pm 5.0 -0.9 1.6 79 1.4 WNW 22 26 12 14 - - 0.0
04/09:50pm 5.1 -0.5 1.5 77 1.5 WNW 20 22 11 12 - - 0.0
04/09:40pm 5.2 -0.2 1.4 76 1.6 WNW 19 24 10 13 - - 0.0
04/09:30pm 5.2 -0.4 1.4 76 1.6 WNW 20 22 11 12 - - 0.0
04/09:20pm 5.2 -0.3 1.6 77 1.5 WNW 20 22 11 12 - - 0.0
04/09:10pm 5.3 0.0 1.6 77 1.5 WNW 19 22 10 12 - - 0.0
04/09:00pm 5.2 -0.1 1.6 77 1.5 WNW 19 20 10 11 - - 0.0
04/08:50pm 5.1 0.2 1.7 79 1.4 WNW 17 19 9 10 - - 0.0
04/08:40pm 4.9 0.3 1.7 80 1.3 WNW 15 19 8 10 - - 0.0
04/08:30pm 4.8 0.2 1.7 80 1.3 WNW 15 17 8 9 - - 0.0
04/08:20pm 4.7 0.5 1.7 81 1.2 NW 13 15 7 8 - - 0.0
04/08:10pm 4.8 0.2 1.8 81 1.3 NW 15 17 8 9 - - 0.0
04/08:00pm 4.8 0.2 1.7 80 1.3 WNW 15 17 8 9 - - 0.0
04/07:50pm 4.9 -0.4 1.9 81 1.3 WNW 19 20 10 11 - - 0.0
04/07:40pm 4.8 -0.7 1.8 81 1.3 NW 20 22 11 12 - - 0.0
04/07:30pm 4.5 -1.0 2.1 84 1.0 NW 20 22 11 12 - - 0.0
04/07:20pm 4.3 -0.2 2.2 86 0.9 NW 15 19 8 10 - - 0.0
04/07:10pm 4.4 -0.1 2.3 86 0.9 NW 15 19 8 10 - - 0.0
04/07:00pm 4.5 0.0 2.3 86 0.9 NW 15 17 8 9 - - 0.0
04/06:50pm 4.7 0.2 2.3 84 1.0 NW 15 19 8 10 - - 0.0
04/06:40pm 4.8 0.3 2.2 83 1.1 NW 15 19 8 10 - - 0.0
04/06:30pm 4.8 0.3 2.1 83 1.1 NNW 15 17 8 9 - - 0.0
04/06:20pm 5.0 0.9 2.1 81 1.2 NNW 13 17 7 9 - - 0.0
04/06:10pm 5.2 0.7 2.1 80 1.3 NNW 15 19 8 10 - - 0.0
04/06:00pm 5.5 1.4 2.1 79 1.4 NNW 13 15 7 8 - - 0.0
04/05:50pm 6.1 1.6 1.9 74 1.8 NW 15 19 8 10 - - 0.0
04/05:40pm 6.4 1.5 1.8 72 1.9 NW 17 19 9 10 - - 0.0
04/05:30pm 6.9 1.6 1.6 69 2.2 WNW 19 24 10 13 - - 0.0
04/05:20pm 7.1 1.5 1.2 66 2.5 WNW 20 24 11 13 - - 0.0
04/05:10pm 7.2 1.6 1.3 66 2.5 WNW 20 24 11 13 - - 0.0
04/05:00pm 7.5 2.5 1.6 66 2.5 WNW 17 20 9 11 - - 0.0
04/04:50pm 8.0 3.0 1.3 62 2.8 WNW 17 20 9 11 - - 0.0
04/04:40pm 8.5 3.8 1.2 60 3.1 WNW 15 19 8 10 - - 0.0
04/04:30pm 8.9 4.6 0.7 56 3.5 WNW 13 15 7 8 - - 0.0
04/04:20pm 9.2 5.1 0.0 52 3.8 NW 11 15 6 8 - - 0.0
04/04:10pm 9.4 5.0 0.1 52 3.9 WNW 13 15 7 8 - - 0.0
04/04:00pm 9.5 5.0 0.0 51 4.0 WNW 13 15 7 8 - - 0.0
04/03:50pm 9.6 4.8 0.5 53 3.9 WNW 15 17 8 9 - - 0.0
04/03:40pm 9.8 5.3 0.0 50 4.1 WNW 13 17 7 9 - - 0.0
04/03:30pm 9.8 5.7 0.0 50 4.1 NW 11 13 6 7 - - 0.0
04/03:20pm 9.8 5.0 0.0 50 4.1 WNW 15 17 8 9 - - 0.0
04/03:10pm 9.8 5.4 0.1 51 4.1 WNW 13 19 7 10 - - 0.0
04/03:00pm 10.0 6.0 0.7 52 4.0 W 11 15 6 8 - - 0.0
04/02:50pm 9.8 5.3 -0.1 50 4.1 W 13 17 7 9 - - 0.0
04/02:40pm 9.5 4.3 0.3 52 3.9 W 17 20 9 11 - - 0.0
04/02:30pm 9.6 4.8 0.1 51 4.0 W 15 19 8 10 - - 0.0
04/02:20pm 9.4 4.6 0.2 52 3.9 W 15 19 8 10 - - 0.0
04/02:10pm 9.1 4.0 0.8 56 3.5 WSW 17 20 9 11 - - 0.0
04/02:00pm 8.9 3.7 0.4 55 3.6 W 17 22 9 12 - - 0.0
04/01:50pm 8.8 3.7 0.6 56 3.5 WSW 17 19 9 10 - - 0.0
04/01:40pm 8.7 3.9 0.4 56 3.5 WSW 15 19 8 10 - - 0.0
04/01:30pm 8.5 3.4 0.6 57 3.3 W 17 20 9 11 - - 0.0
04/01:20pm 8.4 3.2 0.0 55 3.5 W 17 20 9 11 - - 0.0
04/01:10pm 8.2 3.1 1.0 60 3.0 WSW 17 22 9 12 - - 0.0
04/01:00pm 7.9 2.1 0.2 58 3.2 W 20 26 11 14 - - 0.0
04/12:50pm 8.2 3.4 0.3 57 3.3 WSW 15 20 8 11 - - 0.0

Latest Capital City Observations: Canberra | Sydney | Melbourne | Brisbane | Adelaide | Perth | Hobart | Darwin

Other formats

Comma delimited format used in spreadsheet applications
http://www.bom.gov.au/fwo/IDN60903/IDN60903.99764.axf

JavaScript Object Notation format (JSON) in row-major order
http://www.bom.gov.au/fwo/IDN60903/IDN60903.99764.json

Data quality

Most of these data are generated automatically and are frequently updated. Quality checks on data are not normally performed. It is possible for incorrect values to appear. Refer to information at About Latest Weather Observations and please check the disclaimer before using these data.